createdAt,value
2023-03-05T00:01:29.213Z,54.94
2023-03-05T00:03:57.379Z,55.05
2023-03-05T00:06:27.077Z,55.22
2023-03-05T00:08:56.788Z,55.38
2023-03-05T00:11:28.040Z,55.43
2023-03-05T00:13:56.469Z,55.55
2023-03-05T00:16:26.868Z,55.59
2023-03-05T00:18:55.642Z,55.76
2023-03-05T00:21:26.377Z,55.85
2023-03-05T00:23:55.254Z,56.04
2023-03-05T00:26:25.463Z,56.23
2023-03-05T00:28:53.378Z,56.14
2023-03-05T00:31:26.882Z,56.18
2023-03-05T00:33:56.620Z,56.22
2023-03-05T00:36:25.186Z,56.38
2023-03-05T00:38:53.287Z,56.28
2023-03-05T00:41:21.117Z,55.80
2023-03-05T00:43:49.181Z,55.68
2023-03-05T00:46:17.414Z,55.37
2023-03-05T00:48:45.637Z,55.42
2023-03-05T00:51:13.473Z,55.35
2023-03-05T00:53:41.331Z,55.52
2023-03-05T00:56:09.309Z,55.63
2023-03-05T00:58:38.342Z,55.84
2023-03-05T01:01:06.909Z,55.77
2023-03-05T01:03:36.878Z,55.73
2023-03-05T01:06:07.299Z,55.63
2023-03-05T01:08:35.998Z,55.48
2023-03-05T01:11:05.324Z,55.85
2023-03-05T01:13:33.072Z,55.85
2023-03-05T01:16:01.418Z,55.51
2023-03-05T01:18:29.305Z,55.87
2023-03-05T01:20:57.111Z,55.76
2023-03-05T01:23:25.087Z,55.69
2023-03-05T01:25:57.310Z,55.91
2023-03-05T01:28:25.243Z,55.53
2023-03-05T01:30:53.140Z,55.52
2023-03-05T01:33:20.910Z,54.98
2023-03-05T01:35:48.940Z,55.13
2023-03-05T01:38:17.271Z,54.46
2023-03-05T01:40:45.453Z,54.19
2023-03-05T01:43:13.410Z,54.31
2023-03-05T01:46:19.052Z,54.19
2023-03-05T01:49:02.751Z,54.16
2023-03-05T01:51:38.957Z,54.37
2023-03-05T01:54:07.971Z,54.11
2023-03-05T01:56:36.068Z,54.51
2023-03-05T01:59:04.349Z,54.41
2023-03-05T02:01:44.568Z,54.06
2023-03-05T02:04:15.551Z,54.43
2023-03-05T02:06:43.837Z,54.36
2023-03-05T02:09:12.238Z,54.38
2023-03-05T02:11:40.512Z,54.35
2023-03-05T02:14:10.132Z,54.34
2023-03-05T02:16:38.783Z,54.32
2023-03-05T02:19:09.851Z,54.27
2023-03-05T02:21:47.096Z,54.38
2023-03-05T02:24:19.289Z,54.50
2023-03-05T02:26:47.639Z,54.99
2023-03-05T02:29:19.375Z,55.55
2023-03-05T02:31:47.298Z,55.76
2023-03-05T02:34:15.193Z,55.98
2023-03-05T02:36:43.036Z,56.03
2023-03-05T02:39:11.463Z,56.13
2023-03-05T02:41:39.252Z,56.18
2023-03-05T02:44:07.282Z,56.39
2023-03-05T02:46:35.090Z,56.50
2023-03-05T02:49:03.241Z,56.87
2023-03-05T02:51:31.220Z,56.91
2023-03-05T02:53:59.913Z,57.32
2023-03-05T02:56:29.867Z,57.48
2023-03-05T02:58:57.742Z,57.86
2023-03-05T03:01:28.355Z,57.98
2023-03-05T03:03:56.532Z,57.98
2023-03-05T03:06:24.262Z,58.26
2023-03-05T03:08:52.082Z,58.46
2023-03-05T03:11:21.436Z,58.53
2023-03-05T03:13:49.261Z,58.61
2023-03-05T03:16:18.278Z,58.76
2023-03-05T03:18:47.557Z,58.70
2023-03-05T03:21:23.892Z,58.83
2023-03-05T03:23:51.837Z,58.94
2023-03-05T03:26:19.736Z,58.96
2023-03-05T03:28:47.506Z,59.09
2023-03-05T03:35:34.307Z,58.94
2023-03-05T03:38:02.211Z,59.11
2023-03-05T03:40:30.623Z,59.08
2023-03-05T03:42:58.563Z,59.10
2023-03-05T03:45:26.309Z,59.08
2023-03-05T03:47:54.109Z,59.16
2023-03-05T03:50:24.882Z,59.13
2023-03-05T03:52:52.788Z,59.13
2023-03-05T03:55:20.492Z,59.25
2023-03-05T03:57:48.445Z,59.25
2023-03-05T04:00:17.048Z,59.29
2023-03-05T04:02:44.871Z,59.31
2023-03-05T04:05:12.816Z,59.36
2023-03-05T04:07:40.906Z,59.23
2023-03-05T04:10:09.407Z,59.14
2023-03-05T04:12:37.401Z,59.18
2023-03-05T04:15:08.044Z,59.19
2023-03-05T04:17:35.790Z,59.21
2023-03-05T04:20:05.856Z,59.07
2023-03-05T04:22:33.610Z,58.97
2023-03-05T04:25:03.872Z,59.07
2023-03-05T04:27:31.699Z,58.97
2023-03-05T04:30:00.333Z,58.81
2023-03-05T04:32:29.843Z,58.85
2023-03-05T04:34:57.747Z,59.01
2023-03-05T04:37:26.285Z,59.53
2023-03-05T04:39:54.197Z,60.04
2023-03-05T04:42:21.904Z,60.93
2023-03-05T04:44:50.115Z,61.43
2023-03-05T04:47:18.818Z,61.99
2023-03-05T04:49:46.587Z,62.01
2023-03-05T04:52:15.095Z,62.28
2023-03-05T04:54:44.685Z,66.76
2023-03-05T04:57:12.750Z,67.31
2023-03-05T04:59:40.550Z,62.03
2023-03-05T05:02:08.372Z,54.66
2023-03-05T05:04:36.147Z,51.90
2023-03-05T05:07:04.829Z,52.26
2023-03-05T05:09:32.569Z,52.86
2023-03-05T05:12:00.304Z,53.77
2023-03-05T05:14:28.031Z,54.67
2023-03-05T05:16:55.991Z,54.90
2023-03-05T05:19:23.914Z,55.48
2023-03-05T05:21:51.929Z,55.83
2023-03-05T05:24:19.812Z,56.59
2023-03-05T05:26:47.587Z,56.88
2023-03-05T05:29:16.843Z,57.53
2023-03-05T05:31:45.064Z,58.24
2023-03-05T05:34:12.952Z,58.60
2023-03-05T05:36:40.671Z,58.96
2023-03-05T05:39:08.531Z,59.07
2023-03-05T05:41:36.528Z,59.17
2023-03-05T05:44:04.545Z,59.38
2023-03-05T05:46:32.313Z,59.51
2023-03-05T05:49:00.508Z,59.78
2023-03-05T05:51:28.353Z,60.21
2023-03-05T05:53:56.289Z,60.35
2023-03-05T05:56:24.409Z,60.89
2023-03-05T05:58:52.290Z,61.33
2023-03-05T06:01:24.940Z,61.85
2023-03-05T06:03:52.879Z,62.39
2023-03-05T06:06:23.062Z,67.54
2023-03-05T06:08:52.332Z,69.92
2023-03-05T06:11:20.345Z,64.85
2023-03-05T06:13:49.209Z,58.43
2023-03-05T06:16:19.948Z,54.12
2023-03-05T06:18:48.044Z,54.85
2023-03-05T06:21:17.311Z,56.09
2023-03-05T06:23:46.110Z,57.46
2023-03-05T06:26:17.246Z,59.84
2023-03-05T06:28:45.061Z,62.08
2023-03-05T06:31:17.380Z,64.17
2023-03-05T06:33:45.225Z,64.78
2023-03-05T06:36:15.910Z,59.90
2023-03-05T06:38:44.491Z,56.49
2023-03-05T06:41:17.765Z,56.89
2023-03-05T06:43:46.810Z,58.87
2023-03-05T06:46:35.615Z,61.00
2023-03-05T06:49:04.095Z,62.72
2023-03-05T06:51:39.521Z,61.45
2023-03-05T06:54:10.473Z,58.55
2023-03-05T06:56:40.306Z,57.69
2023-03-05T06:59:08.605Z,58.37
2023-03-05T07:01:36.932Z,61.27
2023-03-05T07:04:06.820Z,62.88
2023-03-05T07:06:36.891Z,62.83
2023-03-05T07:09:06.593Z,57.85
2023-03-05T07:11:34.832Z,56.61
2023-03-05T07:14:03.501Z,58.20
2023-03-05T07:16:33.408Z,59.10
2023-03-05T07:19:03.723Z,59.92
2023-03-05T07:21:33.491Z,60.47
2023-03-05T07:24:02.970Z,61.17
2023-03-05T07:26:33.374Z,61.20
2023-03-05T07:29:01.738Z,61.78
2023-03-05T07:31:33.396Z,61.43
2023-03-05T07:34:02.474Z,60.98
2023-03-05T07:36:31.143Z,60.75
2023-03-05T07:38:59.184Z,60.79
2023-03-05T07:41:27.043Z,60.86
2023-03-05T07:43:55.513Z,60.69
2023-03-05T07:46:28.834Z,60.93
2023-03-05T07:48:57.436Z,60.59
2023-03-05T07:51:27.049Z,61.36
2023-03-05T07:53:58.639Z,61.65
2023-03-05T07:56:32.309Z,61.80
2023-03-05T07:59:12.079Z,61.50
2023-03-05T08:01:41.159Z,61.58
2023-03-05T08:04:10.969Z,61.60
2023-03-05T08:06:40.972Z,61.77
2023-03-05T08:09:08.736Z,61.94
2023-03-05T08:11:36.747Z,62.18
2023-03-05T08:14:04.741Z,62.03
2023-03-05T08:16:34.420Z,62.13
2023-03-05T08:19:02.450Z,62.46
2023-03-05T08:21:33.889Z,65.82
2023-03-05T08:24:04.310Z,62.09
2023-03-05T08:26:37.932Z,55.61
2023-03-05T08:29:07.593Z,54.92
2023-03-05T08:31:36.150Z,56.22
2023-03-05T08:34:04.758Z,57.69
2023-03-05T08:36:32.548Z,58.80
2023-03-05T08:39:00.736Z,59.51
2023-03-05T08:41:28.628Z,60.11
2023-03-05T08:43:56.581Z,61.38
2023-03-05T08:46:25.148Z,61.55
2023-03-05T08:48:52.984Z,61.94
2023-03-05T08:51:25.811Z,62.17
2023-03-05T08:53:55.925Z,63.15
2023-03-05T08:56:23.648Z,58.84
2023-03-05T08:58:53.076Z,57.28
2023-03-05T14:02:36.936Z,54.28
2023-03-05T14:05:14.768Z,54.41
2023-03-05T14:07:43.075Z,54.07
2023-03-05T14:10:34.311Z,53.88
2023-03-05T14:13:05.324Z,54.08
2023-03-05T14:15:35.329Z,53.73
2023-03-05T14:18:12.196Z,53.25
2023-03-05T14:21:01.664Z,52.90
2023-03-05T14:23:32.550Z,52.94
2023-03-05T14:26:26.404Z,52.63
2023-03-05T14:29:00.427Z,52.91
2023-03-05T14:31:29.912Z,52.97
2023-03-05T14:34:04.334Z,52.85
2023-03-05T14:36:32.775Z,52.24
2023-03-05T14:39:01.070Z,52.66
2023-03-05T14:41:39.066Z,52.75
2023-03-05T14:44:15.866Z,53.08
2023-03-05T14:46:47.778Z,52.95
2023-03-05T14:49:16.576Z,52.77
2023-03-05T14:51:45.993Z,53.44
2023-03-05T14:54:25.966Z,54.57
2023-03-05T14:56:53.922Z,55.37
2023-03-05T14:59:23.968Z,56.26
2023-03-05T15:01:51.894Z,56.95
2023-03-05T15:04:20.225Z,57.75
2023-03-05T15:06:50.967Z,57.66
2023-03-05T15:09:21.074Z,58.00
2023-03-05T15:11:50.242Z,57.80
2023-03-05T15:14:18.348Z,57.66
2023-03-05T15:16:46.828Z,58.04
2023-03-05T15:19:14.789Z,58.24
2023-03-05T15:21:42.639Z,58.52
2023-03-05T15:24:11.486Z,58.59
2023-03-05T15:26:40.119Z,58.60
2023-03-05T15:29:07.971Z,58.79
2023-03-05T15:31:38.777Z,58.89
2023-03-05T15:34:06.936Z,59.06
2023-03-05T15:36:34.729Z,59.22
2023-03-05T15:39:02.722Z,59.31
2023-03-05T15:41:30.635Z,58.95
2023-03-05T15:43:58.540Z,58.86
2023-03-05T15:46:26.593Z,58.70
2023-03-05T15:48:54.821Z,58.79
2023-03-05T15:51:23.261Z,58.87
2023-03-05T15:53:51.515Z,59.10
2023-03-05T15:56:20.097Z,59.21
2023-03-05T15:58:50.863Z,59.47
2023-03-05T16:01:23.484Z,59.80
2023-03-05T16:03:53.746Z,59.96
2023-03-05T16:06:24.324Z,60.26
2023-03-05T16:08:55.960Z,60.55
2023-03-05T16:11:23.892Z,60.48
2023-03-05T16:14:25.901Z,60.61
2023-03-05T16:16:56.100Z,60.81
2023-03-05T16:22:28.106Z,61.94
2023-03-05T16:24:56.830Z,66.79
2023-03-05T16:27:24.990Z,69.41
2023-03-05T16:29:53.423Z,62.88
2023-03-05T16:32:21.631Z,56.72
2023-03-05T16:34:49.710Z,54.92
2023-03-05T16:37:22.818Z,54.97
2023-03-05T16:39:51.146Z,55.47
2023-03-05T16:42:18.994Z,56.31
2023-03-05T16:44:47.520Z,57.49
2023-03-05T16:47:15.872Z,58.48
2023-03-05T16:49:43.695Z,59.16
2023-03-05T16:52:18.868Z,59.50
2023-03-05T16:54:47.793Z,60.05
2023-03-05T17:00:42.210Z,61.24
2023-03-05T17:03:10.580Z,62.12
2023-03-05T17:06:15.289Z,65.68
2023-03-05T17:08:45.747Z,68.79
2023-03-05T17:11:16.777Z,64.12
2023-03-05T17:13:47.084Z,57.05
2023-03-05T17:16:19.368Z,54.58
2023-03-05T17:18:47.903Z,55.35
2023-03-05T17:21:16.239Z,56.68
2023-03-05T17:23:45.110Z,57.72
2023-03-05T17:26:16.160Z,58.21
2023-03-05T17:28:44.974Z,58.38
2023-03-05T17:31:14.504Z,58.96
2023-03-05T17:33:42.713Z,59.48
2023-03-05T17:36:19.139Z,60.27
2023-03-05T17:38:47.791Z,60.26
2023-03-05T17:41:17.038Z,60.91
2023-03-05T17:43:45.426Z,61.45
2023-03-05T17:46:13.358Z,61.72
2023-03-05T17:48:41.805Z,61.98
2023-03-05T17:51:12.595Z,66.15
2023-03-05T17:53:41.047Z,68.06
2023-03-05T17:56:14.455Z,62.99
2023-03-05T17:58:42.366Z,56.98
2023-03-05T18:01:10.630Z,54.52
2023-03-05T18:03:39.597Z,54.73
2023-03-05T18:06:07.385Z,55.30
2023-03-05T18:08:35.649Z,56.49
2023-03-05T18:11:03.597Z,57.56
2023-03-05T18:13:32.015Z,58.00
2023-03-05T18:16:01.190Z,58.89
2023-03-05T18:18:29.097Z,59.56
2023-03-05T18:20:57.755Z,60.40
2023-03-05T18:23:26.987Z,60.69
2023-03-05T18:25:55.661Z,61.16
2023-03-05T18:28:25.974Z,61.80
2023-03-05T18:30:54.360Z,65.00
2023-03-05T18:33:25.004Z,68.10
2023-03-05T18:35:53.733Z,63.24
2023-03-05T18:38:23.093Z,56.97
2023-03-05T18:40:52.258Z,55.04
2023-03-05T18:43:21.175Z,54.97
2023-03-05T18:45:50.512Z,55.56
2023-03-05T18:48:18.860Z,56.49
2023-03-05T18:50:49.889Z,57.17
2023-03-05T18:53:18.729Z,57.76
2023-03-05T18:55:46.717Z,58.44
2023-03-05T18:58:15.501Z,59.07
2023-03-05T19:00:44.931Z,59.78
2023-03-05T19:03:14.629Z,60.77
2023-03-05T19:05:46.205Z,61.58
2023-03-05T19:08:16.456Z,65.50
2023-03-05T19:10:47.619Z,67.01
2023-03-05T19:13:44.117Z,62.69
2023-03-05T19:16:17.578Z,57.40
2023-03-05T19:19:12.398Z,55.98
2023-03-05T19:21:48.259Z,56.24
2023-03-05T19:24:16.881Z,57.62
2023-03-05T19:26:45.243Z,58.59
2023-03-05T19:29:13.107Z,60.06
2023-03-05T19:31:41.775Z,60.62
2023-03-05T19:34:11.477Z,60.69
2023-03-05T19:36:39.584Z,61.45
2023-03-05T19:39:08.246Z,65.73
2023-03-05T19:41:37.559Z,66.29
2023-03-05T19:44:06.311Z,62.96
2023-03-05T19:46:34.120Z,58.00
2023-03-05T19:49:02.088Z,55.64
2023-03-05T19:51:30.075Z,56.51
2023-03-05T19:53:59.365Z,57.39
2023-03-05T19:56:27.135Z,58.21
2023-03-05T19:58:54.957Z,59.68
2023-03-05T20:01:27.554Z,60.28
2023-03-05T20:03:57.660Z,60.74
2023-03-05T20:06:27.158Z,61.78
2023-03-05T20:08:55.403Z,65.89
2023-03-05T20:11:23.661Z,68.15
2023-03-05T20:13:52.751Z,64.01
2023-03-05T20:16:23.765Z,58.38
2023-03-05T20:18:54.632Z,55.07
2023-03-05T20:21:25.623Z,55.64
2023-03-05T20:23:55.245Z,57.03
2023-03-05T20:26:25.753Z,57.78
2023-03-05T20:28:54.499Z,59.28
2023-03-05T20:31:24.743Z,60.39
2023-03-05T20:33:53.449Z,61.20
2023-03-05T20:36:21.222Z,61.36
2023-03-05T20:38:49.137Z,65.25
2023-03-05T20:41:18.906Z,68.40
2023-03-05T20:43:49.213Z,62.79
2023-03-05T20:46:22.877Z,62.02
2023-03-05T20:48:53.263Z,56.74
2023-03-05T20:51:27.430Z,55.20
2023-03-05T20:53:58.485Z,57.16
2023-03-05T20:56:29.247Z,57.59
2023-03-05T20:58:58.344Z,58.77
2023-03-05T21:01:27.588Z,59.75
2023-03-05T21:03:59.367Z,61.41
2023-03-05T21:06:28.305Z,65.49
2023-03-05T21:08:56.643Z,67.20
2023-03-05T21:11:25.042Z,61.93
2023-03-05T21:13:53.256Z,56.37
2023-03-05T21:16:26.047Z,54.57
2023-03-05T21:18:55.960Z,55.43
2023-03-05T21:21:24.661Z,57.61
2023-03-05T21:23:53.429Z,58.27
2023-03-05T21:26:21.924Z,59.05
2023-03-05T21:28:49.709Z,60.58
2023-03-05T21:31:19.993Z,61.01
2023-03-05T21:33:47.863Z,61.08
2023-03-05T21:36:18.993Z,61.82
2023-03-05T21:38:47.859Z,66.13
2023-03-05T21:41:18.083Z,67.82
2023-03-05T21:43:46.181Z,62.61
2023-03-05T21:46:14.181Z,56.36
2023-03-05T21:48:41.955Z,54.67
2023-03-05T21:51:48.897Z,55.02
2023-03-05T21:54:45.215Z,55.42
2023-03-05T21:57:13.303Z,56.76
2023-03-05T21:59:42.146Z,57.87
2023-03-05T22:02:14.204Z,58.88
2023-03-05T22:04:42.413Z,59.04
2023-03-05T22:07:10.460Z,60.29
2023-03-05T22:09:38.336Z,60.78
2023-03-05T22:12:29.576Z,61.26
2023-03-05T22:15:08.438Z,61.37
2023-03-05T22:17:36.331Z,65.09
2023-03-05T22:20:05.116Z,67.69
2023-03-05T22:22:32.978Z,63.15
2023-03-05T22:25:00.745Z,56.57
2023-03-05T22:27:28.554Z,54.39
2023-03-05T22:29:56.488Z,54.52
2023-03-05T22:32:24.232Z,56.04
2023-03-05T22:34:56.335Z,56.47
2023-03-05T22:37:24.068Z,57.47
2023-03-05T22:39:55.788Z,57.92
2023-03-05T22:42:24.460Z,58.61
2023-03-05T22:44:58.737Z,59.70
2023-03-05T22:47:27.261Z,59.66
2023-03-05T22:49:55.029Z,60.02
2023-03-05T22:52:22.856Z,60.56
2023-03-05T22:54:50.569Z,61.00
2023-03-05T22:57:18.363Z,61.30
2023-03-05T22:59:47.209Z,61.40
2023-03-05T23:02:15.178Z,61.70
2023-03-05T23:04:49.266Z,61.84
2023-03-05T23:07:28.520Z,65.36
2023-03-05T23:10:00.934Z,67.99
2023-03-05T23:12:31.018Z,60.83
2023-03-05T23:15:00.806Z,54.22
2023-03-05T23:17:29.097Z,52.30
2023-03-05T23:19:56.990Z,52.84
2023-03-05T23:22:24.801Z,53.82
2023-03-05T23:24:52.659Z,54.34
2023-03-05T23:27:20.456Z,55.24
2023-03-05T23:30:21.229Z,55.75
2023-03-05T23:33:15.094Z,56.62
2023-03-05T23:35:53.069Z,57.24
2023-03-05T23:38:22.138Z,57.96
2023-03-05T23:40:54.070Z,58.50
2023-03-05T23:43:24.646Z,58.80
2023-03-05T23:45:57.017Z,59.24
2023-03-05T23:48:26.956Z,59.48
2023-03-05T23:50:55.530Z,59.98
2023-03-05T23:53:25.980Z,60.44
2023-03-05T23:55:55.024Z,60.94
2023-03-05T23:58:23.375Z,61.06
